createdAt,value
2022-12-06T00:01:46.177Z,5.50
2022-12-06T00:04:17.229Z,5.51
2022-12-06T00:06:48.979Z,5.54
2022-12-06T00:09:18.791Z,5.56
2022-12-06T00:11:48.113Z,5.54
2022-12-06T00:14:18.239Z,5.48
2022-12-06T00:16:48.671Z,5.38
2022-12-06T00:19:20.330Z,5.29
2022-12-06T00:21:49.676Z,5.25
2022-12-06T00:24:22.079Z,5.25
2022-12-06T00:26:53.463Z,5.27
2022-12-06T00:29:24.356Z,5.24
2022-12-06T00:31:53.795Z,5.17
2022-12-06T00:34:22.478Z,5.13
2022-12-06T00:36:51.402Z,5.16
2022-12-06T00:39:20.441Z,5.20
2022-12-06T00:41:49.205Z,5.24
2022-12-06T00:44:18.000Z,5.28
2022-12-06T00:46:46.709Z,5.29
2022-12-06T00:49:15.712Z,5.31
2022-12-06T00:51:44.569Z,5.26
2022-12-06T00:54:15.318Z,5.19
2022-12-06T00:56:43.989Z,5.13
2022-12-06T00:59:12.733Z,5.08
2022-12-06T01:01:43.003Z,5.07
2022-12-06T01:04:11.773Z,5.06
2022-12-06T01:06:40.499Z,5.06
2022-12-06T01:09:12.329Z,5.01
2022-12-06T01:11:41.252Z,4.92
2022-12-06T01:14:10.271Z,4.85
2022-12-06T01:16:39.456Z,4.83
2022-12-06T01:19:08.453Z,4.84
2022-12-06T01:21:37.304Z,4.87
2022-12-06T01:24:06.722Z,4.91
2022-12-06T01:26:36.420Z,4.92
2022-12-06T01:29:06.088Z,4.92
2022-12-06T01:31:38.834Z,4.92
2022-12-06T01:34:17.313Z,4.94
2022-12-06T01:36:46.199Z,4.97
2022-12-06T01:39:15.700Z,4.95
2022-12-06T01:41:44.695Z,4.97
2022-12-06T01:44:49.853Z,4.95
2022-12-06T01:47:37.692Z,4.93
2022-12-06T01:50:22.063Z,4.92
2022-12-06T01:52:58.494Z,4.91
2022-12-06T01:55:32.913Z,4.89
2022-12-06T01:58:10.413Z,4.90
2022-12-06T02:03:53.977Z,4.99
2022-12-06T02:06:24.723Z,4.94
2022-12-06T02:08:57.165Z,4.98
2022-12-06T02:11:29.424Z,5.01
2022-12-06T02:14:02.778Z,5.04
2022-12-06T02:17:23.212Z,5.05
2022-12-06T02:20:19.509Z,4.98
2022-12-06T02:23:12.061Z,5.00
2022-12-06T02:26:29.034Z,5.04
2022-12-06T02:29:53.902Z,5.08
2022-12-06T02:33:00.707Z,5.10
2022-12-06T02:35:44.341Z,5.12
2022-12-06T02:38:43.679Z,5.15
2022-12-06T02:41:40.400Z,5.14
2022-12-06T02:44:20.031Z,5.08
2022-12-06T02:46:51.195Z,5.03
2022-12-06T02:49:24.573Z,5.01
2022-12-06T02:51:54.841Z,4.99
2022-12-06T02:54:27.172Z,5.03
2022-12-06T02:56:56.050Z,5.08
2022-12-06T02:59:24.842Z,5.11
2022-12-06T03:01:59.792Z,5.14
2022-12-06T03:04:49.787Z,5.16
2022-12-06T03:07:49.230Z,5.15
2022-12-06T03:10:27.323Z,5.11
2022-12-06T03:13:14.378Z,5.05
2022-12-06T03:16:17.443Z,4.97
2022-12-06T03:19:05.214Z,4.89
2022-12-06T03:21:53.953Z,4.83
2022-12-06T03:24:24.623Z,4.78
2022-12-06T03:26:56.640Z,4.78
2022-12-06T03:29:30.482Z,4.78
2022-12-06T03:32:05.206Z,4.73
2022-12-06T03:34:41.578Z,4.71
2022-12-06T03:37:16.271Z,4.73
2022-12-06T03:40:14.950Z,4.76
2022-12-06T03:42:43.944Z,4.80
2022-12-06T03:45:14.456Z,4.87
2022-12-06T03:47:58.519Z,4.93
2022-12-06T03:50:39.485Z,4.98
2022-12-06T03:53:08.597Z,5.01
2022-12-06T03:55:37.439Z,5.04
2022-12-06T03:58:06.334Z,5.07
2022-12-06T04:00:35.130Z,5.09
2022-12-06T04:03:04.145Z,5.11
2022-12-06T04:05:33.059Z,5.13
2022-12-06T04:08:02.024Z,5.13
2022-12-06T04:10:31.025Z,5.16
2022-12-06T04:13:02.627Z,5.20
2022-12-06T04:15:36.906Z,5.23
2022-12-06T04:18:18.647Z,5.22
2022-12-06T04:21:08.673Z,5.23
2022-12-06T04:23:41.154Z,5.21
2022-12-06T04:26:14.396Z,5.21
2022-12-06T04:29:01.933Z,5.22
2022-12-06T04:31:49.950Z,5.19
2022-12-06T04:34:37.829Z,5.12
2022-12-06T04:37:25.895Z,5.04
2022-12-06T04:39:56.136Z,5.01
2022-12-06T04:43:03.364Z,5.00
2022-12-06T04:45:32.288Z,4.97
2022-12-06T04:48:01.218Z,4.96
2022-12-06T04:50:30.064Z,4.98
2022-12-06T04:52:59.163Z,5.03
2022-12-06T04:55:28.059Z,5.05
2022-12-06T04:57:56.842Z,5.06
2022-12-06T05:00:25.735Z,5.10
2022-12-06T05:02:54.927Z,5.10
2022-12-06T05:05:24.558Z,5.11
2022-12-06T05:07:53.647Z,5.14
2022-12-06T05:10:22.659Z,5.17
2022-12-06T05:12:51.757Z,5.20
2022-12-06T05:15:24.478Z,5.24
2022-12-06T05:17:55.990Z,5.28
2022-12-06T05:20:25.031Z,5.31
2022-12-06T05:22:53.946Z,5.33
2022-12-06T05:25:22.776Z,5.34
2022-12-06T05:27:51.621Z,5.31
2022-12-06T05:30:20.592Z,5.28
2022-12-06T05:32:53.882Z,5.27
2022-12-06T05:35:25.850Z,5.27
2022-12-06T05:37:54.658Z,5.28
2022-12-06T05:40:23.478Z,5.29
2022-12-06T05:42:54.465Z,5.29
2022-12-06T05:45:23.971Z,5.30
2022-12-06T05:47:52.922Z,5.31
2022-12-06T05:50:21.837Z,5.32
2022-12-06T05:52:57.235Z,5.33
2022-12-06T05:55:27.850Z,5.35
2022-12-06T05:57:56.878Z,5.37
2022-12-06T06:00:25.910Z,5.40
2022-12-06T06:02:54.974Z,5.42
2022-12-06T06:05:24.000Z,5.44
2022-12-06T06:07:53.096Z,5.46
2022-12-06T06:10:23.329Z,5.48
2022-12-06T06:12:53.042Z,5.48
2022-12-06T06:15:23.239Z,5.50
2022-12-06T06:17:53.683Z,5.49
2022-12-06T06:20:22.573Z,5.48
2022-12-06T06:22:51.512Z,5.47
2022-12-06T06:25:20.854Z,5.45
2022-12-06T06:27:49.705Z,5.43
2022-12-06T06:30:20.506Z,5.43
2022-12-06T06:32:49.680Z,5.43
2022-12-06T06:35:18.935Z,5.41
2022-12-06T06:37:48.334Z,5.38
2022-12-06T06:40:17.782Z,5.37
2022-12-06T06:42:46.836Z,5.38
2022-12-06T06:45:15.752Z,5.38
2022-12-06T06:47:44.608Z,5.40
2022-12-06T06:50:14.571Z,5.41
2022-12-06T06:52:43.473Z,5.43
2022-12-06T06:55:12.882Z,5.42
2022-12-06T06:57:41.815Z,5.46
2022-12-06T07:00:11.691Z,5.47
2022-12-06T07:02:40.634Z,5.49
2022-12-06T07:05:09.817Z,5.51
2022-12-06T07:07:39.278Z,5.53
2022-12-06T07:10:11.491Z,5.55
2022-12-06T07:12:40.453Z,5.56
2022-12-06T07:15:10.058Z,5.47
2022-12-06T07:17:39.026Z,5.48
2022-12-06T07:20:08.718Z,5.50
2022-12-06T07:22:37.849Z,5.51
2022-12-06T07:25:07.240Z,5.49
2022-12-06T07:27:37.152Z,5.44
2022-12-06T07:30:07.322Z,5.37
2022-12-06T07:32:37.289Z,5.34
2022-12-06T07:35:07.113Z,5.33
2022-12-06T07:37:36.083Z,5.35
2022-12-06T07:40:06.646Z,5.33
2022-12-06T07:42:54.473Z,5.29
2022-12-06T07:45:23.541Z,5.22
2022-12-06T07:47:52.566Z,5.14
2022-12-06T07:50:23.149Z,5.03
2022-12-06T07:52:52.087Z,4.97
2022-12-06T07:55:21.226Z,4.94
2022-12-06T07:57:49.911Z,4.95
2022-12-06T08:00:19.424Z,4.96
2022-12-06T08:02:48.280Z,4.95
2022-12-06T08:05:17.212Z,4.93
2022-12-06T08:07:45.977Z,4.90
2022-12-06T08:10:14.802Z,4.85
2022-12-06T08:12:43.674Z,4.80
2022-12-06T08:15:15.536Z,4.77
2022-12-06T08:17:45.479Z,4.78
2022-12-06T08:20:16.795Z,4.83
2022-12-06T08:22:45.694Z,4.89
2022-12-06T08:25:14.765Z,4.96
2022-12-06T08:27:43.566Z,5.02
2022-12-06T08:30:12.813Z,5.08
2022-12-06T08:32:41.686Z,5.13
2022-12-06T08:35:11.791Z,5.18
2022-12-06T08:37:40.616Z,5.25
2022-12-06T08:40:11.813Z,5.30
2022-12-06T08:42:42.397Z,5.36
2022-12-06T08:45:11.704Z,5.43
2022-12-06T08:47:40.450Z,5.49
2022-12-06T08:50:09.552Z,5.54
2022-12-06T08:52:38.404Z,5.58
2022-12-06T08:55:08.128Z,5.63
2022-12-06T08:57:37.042Z,5.65
2022-12-06T09:00:07.202Z,5.67
2022-12-06T09:02:39.986Z,5.69
2022-12-06T09:05:09.673Z,5.67
2022-12-06T09:07:38.554Z,5.65
2022-12-06T09:10:08.542Z,5.65
2022-12-06T09:12:37.423Z,5.64
2022-12-06T09:15:07.018Z,5.64
2022-12-06T09:17:36.223Z,5.66
2022-12-06T09:20:06.685Z,5.69
2022-12-06T09:22:35.922Z,5.71
2022-12-06T09:25:05.178Z,5.73
2022-12-06T09:27:34.005Z,5.74
2022-12-06T09:30:04.293Z,5.71
2022-12-06T09:32:33.254Z,5.66
2022-12-06T09:35:02.173Z,5.62
2022-12-06T09:37:32.620Z,5.59
2022-12-06T09:40:11.814Z,5.54
2022-12-06T09:43:28.757Z,5.48
2022-12-06T09:46:25.066Z,5.45
2022-12-06T09:49:44.520Z,5.46
2022-12-06T09:52:37.384Z,5.43
2022-12-06T09:55:20.222Z,5.43
2022-12-06T09:58:19.804Z,5.43
2022-12-06T10:01:06.754Z,5.43
2022-12-06T10:04:02.034Z,5.45
2022-12-06T10:06:48.559Z,5.49
2022-12-06T10:09:29.982Z,5.53
2022-12-06T10:12:17.291Z,5.57
2022-12-06T10:15:09.127Z,5.59
2022-12-06T10:17:52.327Z,5.61
2022-12-06T10:20:47.453Z,5.61
2022-12-06T10:23:41.757Z,5.56
2022-12-06T10:26:26.612Z,5.53
2022-12-06T10:29:32.915Z,5.55
2022-12-06T10:32:32.829Z,5.55
2022-12-06T10:35:55.685Z,5.58
2022-12-06T10:38:57.597Z,5.59
2022-12-06T10:41:45.576Z,5.64
2022-12-06T10:44:46.809Z,5.71
2022-12-06T10:47:40.832Z,5.75
2022-12-06T10:50:30.423Z,5.73
2022-12-06T10:53:39.354Z,5.65
2022-12-06T10:56:33.845Z,5.68
2022-12-06T10:59:27.296Z,5.70
2022-12-06T11:02:55.710Z,5.69
2022-12-06T11:06:01.758Z,5.56
2022-12-06T11:08:45.570Z,5.52
2022-12-06T11:11:36.068Z,5.42
2022-12-06T11:14:48.468Z,5.39
2022-12-06T11:17:34.224Z,5.40
2022-12-06T11:20:30.010Z,5.41
2022-12-06T11:23:38.962Z,5.44
2022-12-06T11:27:00.222Z,5.42
2022-12-06T11:30:02.532Z,5.50
2022-12-06T11:32:50.899Z,5.51
2022-12-06T11:35:30.714Z,5.57
2022-12-06T11:38:10.977Z,5.58
2022-12-06T11:41:07.385Z,5.57
2022-12-06T11:43:47.543Z,5.57
2022-12-06T11:49:37.148Z,5.60
2022-12-06T11:52:42.673Z,5.58
2022-12-06T11:55:47.200Z,5.54
2022-12-06T11:58:38.126Z,5.52
2022-12-06T12:01:14.808Z,5.55
2022-12-06T12:04:36.036Z,5.56
2022-12-06T12:07:24.247Z,5.56
2022-12-06T12:10:09.783Z,5.61
2022-12-06T12:13:08.408Z,5.63
2022-12-06T12:16:48.669Z,5.66
2022-12-06T12:19:37.564Z,5.67
2022-12-06T12:23:14.123Z,5.62
2022-12-06T12:26:29.455Z,5.59
2022-12-06T12:29:33.367Z,5.59
2022-12-06T12:33:06.937Z,5.55
2022-12-06T12:35:28.232Z,5.55
2022-12-06T12:38:19.121Z,5.55
2022-12-06T12:41:12.994Z,5.53
2022-12-06T12:44:20.518Z,5.57
2022-12-06T12:46:52.271Z,5.59
2022-12-06T12:49:30.724Z,5.55
2022-12-06T12:52:04.896Z,5.51
2022-12-06T12:54:40.532Z,5.52
2022-12-06T12:57:26.735Z,5.52
2022-12-06T13:00:00.757Z,5.48
2022-12-06T13:02:40.848Z,5.47
2022-12-06T13:05:35.474Z,5.47
2022-12-06T13:08:32.448Z,5.39
2022-12-06T13:11:24.473Z,5.30
2022-12-06T13:14:13.972Z,5.23
2022-12-06T13:17:11.117Z,5.22
2022-12-06T13:19:59.484Z,5.21
2022-12-06T13:22:52.993Z,5.22
2022-12-06T13:25:32.244Z,5.19
2022-12-06T13:28:13.686Z,5.20
2022-12-06T13:30:59.331Z,5.20
2022-12-06T13:33:37.166Z,5.21
2022-12-06T13:36:14.300Z,5.21
2022-12-06T13:38:48.997Z,5.19
2022-12-06T13:42:11.254Z,5.15
2022-12-06T13:45:01.483Z,5.10
2022-12-06T13:47:31.211Z,5.11
2022-12-06T13:50:22.993Z,5.12
2022-12-06T13:52:57.217Z,5.10
2022-12-06T13:55:33.012Z,5.09
2022-12-06T13:58:05.582Z,5.09
2022-12-06T14:00:44.356Z,5.10
2022-12-06T14:03:24.202Z,5.08
2022-12-06T14:06:20.635Z,5.05
2022-12-06T14:09:00.443Z,5.04
2022-12-06T14:11:45.777Z,5.01
2022-12-06T14:14:26.626Z,5.00
2022-12-06T14:17:38.395Z,5.00
2022-12-06T14:20:29.522Z,4.98
2022-12-06T14:23:05.081Z,4.96
2022-12-06T14:25:43.803Z,4.96
2022-12-06T14:28:22.231Z,4.96
2022-12-06T14:31:04.970Z,4.93
2022-12-06T14:33:39.950Z,4.88
2022-12-06T14:36:32.213Z,4.87
2022-12-06T14:39:25.519Z,4.85
2022-12-06T14:42:37.194Z,4.84
2022-12-06T14:45:16.026Z,4.79
2022-12-06T14:47:49.126Z,4.77
2022-12-06T14:50:33.100Z,4.78
2022-12-06T14:53:29.363Z,4.76
2022-12-06T14:56:29.713Z,4.70
2022-12-06T14:59:01.925Z,4.66
2022-12-06T15:01:34.291Z,4.68
2022-12-06T15:04:09.509Z,4.68
2022-12-06T15:06:52.445Z,4.64
2022-12-06T15:09:22.486Z,4.62
2022-12-06T15:12:10.649Z,4.63
2022-12-06T15:14:39.818Z,4.63
2022-12-06T15:17:13.376Z,4.62
2022-12-06T15:19:49.956Z,4.61
2022-12-06T15:22:27.726Z,4.56
2022-12-06T15:25:00.273Z,4.53
2022-12-06T15:27:31.367Z,4.52
2022-12-06T15:30:05.230Z,4.51
2022-12-06T15:32:34.906Z,4.50
2022-12-06T15:35:09.446Z,4.48
2022-12-06T15:37:40.419Z,4.45
2022-12-06T15:40:15.222Z,4.41
2022-12-06T15:42:44.741Z,4.38
2022-12-06T15:45:18.920Z,4.38
2022-12-06T15:47:51.879Z,4.39
2022-12-06T15:50:21.206Z,4.37
2022-12-06T15:53:23.412Z,4.35
2022-12-06T15:55:57.207Z,4.29
2022-12-06T15:58:26.516Z,4.27
2022-12-06T16:00:57.756Z,4.27
2022-12-06T16:03:26.912Z,4.27
2022-12-06T16:05:57.268Z,4.28
2022-12-06T16:08:26.536Z,4.25
2022-12-06T16:11:13.549Z,4.22
2022-12-06T16:13:42.810Z,4.18
2022-12-06T16:16:12.901Z,4.17
2022-12-06T16:18:46.542Z,4.11
2022-12-06T16:21:23.412Z,4.02
2022-12-06T16:24:14.645Z,3.99
2022-12-06T16:26:45.779Z,3.96
2022-12-06T16:29:25.149Z,3.96
2022-12-06T16:31:54.618Z,3.98
2022-12-06T16:34:34.806Z,4.00
2022-12-06T16:37:06.781Z,3.98
2022-12-06T16:39:36.146Z,3.95
2022-12-06T16:42:05.531Z,3.95
2022-12-06T16:44:51.277Z,3.92
2022-12-06T16:49:49.929Z,3.91
2022-12-06T16:52:19.389Z,3.91
2022-12-06T16:54:52.790Z,3.89
2022-12-06T16:57:31.238Z,3.83
2022-12-06T17:00:02.421Z,3.79
2022-12-06T17:02:36.424Z,3.76
2022-12-06T17:05:10.348Z,3.75
2022-12-06T17:07:41.158Z,3.75
2022-12-06T17:10:18.505Z,3.76
2022-12-06T17:12:49.711Z,3.79
2022-12-06T17:15:21.788Z,3.82
2022-12-06T17:17:51.498Z,3.84
2022-12-06T17:20:20.806Z,3.85
2022-12-06T17:22:49.994Z,3.86
2022-12-06T17:25:22.103Z,3.87
2022-12-06T17:28:01.968Z,3.88
2022-12-06T17:30:31.042Z,3.90
2022-12-06T17:33:00.341Z,3.87
2022-12-06T17:35:38.788Z,3.86
2022-12-06T17:38:09.557Z,3.86
2022-12-06T17:40:39.049Z,3.89
2022-12-06T17:43:17.915Z,3.90
2022-12-06T17:45:57.158Z,3.89
2022-12-06T17:48:36.026Z,3.90
2022-12-06T17:51:09.931Z,3.89
2022-12-06T17:53:42.262Z,3.89
2022-12-06T17:56:23.085Z,3.90
2022-12-06T17:58:57.658Z,3.92
2022-12-06T18:01:50.976Z,3.95
2022-12-06T18:04:21.775Z,3.92
2022-12-06T18:06:51.399Z,3.87
2022-12-06T18:09:29.048Z,3.86
2022-12-06T18:12:00.330Z,3.87
2022-12-06T18:14:33.782Z,3.86
2022-12-06T18:17:09.064Z,3.83
2022-12-06T18:19:40.593Z,3.82
2022-12-06T18:22:29.934Z,3.84
2022-12-06T18:25:03.914Z,3.82
2022-12-06T18:27:33.294Z,3.81
2022-12-06T18:30:56.629Z,3.80
2022-12-06T18:33:52.841Z,3.74
2022-12-06T18:36:34.173Z,3.73
2022-12-06T18:39:15.025Z,3.72
2022-12-06T18:42:25.480Z,3.69
2022-12-06T18:45:02.745Z,3.68
2022-12-06T18:48:04.302Z,3.71
2022-12-06T18:50:39.089Z,3.73
2022-12-06T18:53:11.129Z,3.69
2022-12-06T18:55:43.155Z,3.72
2022-12-06T18:58:15.487Z,3.77
2022-12-06T19:00:45.644Z,3.79
2022-12-06T19:03:22.726Z,3.80
2022-12-06T19:06:03.050Z,3.82
2022-12-06T19:08:32.867Z,3.81
2022-12-06T19:11:05.947Z,3.83
2022-12-06T19:14:08.713Z,3.80
2022-12-06T19:16:48.405Z,3.82
2022-12-06T19:19:25.973Z,3.82
2022-12-06T19:22:00.531Z,3.77
2022-12-06T19:24:42.253Z,3.79
2022-12-06T19:27:18.492Z,3.83
2022-12-06T19:29:50.145Z,3.85
2022-12-06T19:32:28.952Z,3.78
2022-12-06T19:35:08.176Z,3.76
2022-12-06T19:37:46.776Z,3.73
2022-12-06T19:40:28.115Z,3.74
2022-12-06T19:43:22.867Z,3.75
2022-12-06T19:45:56.483Z,3.72
2022-12-06T19:48:28.294Z,3.75
2022-12-06T19:50:58.838Z,3.79
2022-12-06T19:53:28.447Z,3.80
2022-12-06T19:56:09.877Z,3.80
2022-12-06T19:58:51.381Z,3.79
2022-12-06T20:01:35.839Z,3.78
2022-12-06T20:04:29.666Z,3.76
2022-12-06T20:07:10.326Z,3.76
2022-12-06T20:09:40.087Z,3.74
2022-12-06T20:12:13.280Z,3.72
2022-12-06T20:14:56.850Z,3.70
2022-12-06T20:17:43.791Z,3.69
2022-12-06T20:20:22.892Z,3.71
2022-12-06T20:23:10.240Z,3.74
2022-12-06T20:25:44.369Z,3.75
2022-12-06T20:28:28.275Z,3.77
2022-12-06T20:31:17.941Z,3.76
2022-12-06T20:34:03.337Z,3.74
2022-12-06T20:36:38.231Z,3.70
2022-12-06T20:39:08.189Z,3.70
2022-12-06T20:41:37.782Z,3.70
2022-12-06T20:44:10.653Z,3.73
2022-12-06T20:46:54.468Z,3.76
2022-12-06T20:49:24.623Z,3.78
2022-12-06T20:51:54.037Z,3.78
2022-12-06T20:54:23.485Z,3.78
2022-12-06T20:56:55.283Z,3.77
2022-12-06T20:59:25.070Z,3.73
2022-12-06T21:01:55.192Z,3.71
2022-12-06T21:04:32.913Z,3.73
2022-12-06T21:07:04.859Z,3.67
2022-12-06T21:09:40.791Z,3.72
2022-12-06T21:12:21.484Z,3.71
2022-12-06T21:14:55.915Z,3.67
2022-12-06T21:17:29.170Z,3.61
2022-12-06T21:20:04.180Z,3.58
2022-12-06T21:22:47.098Z,3.58
2022-12-06T21:30:03.805Z,3.55
2022-12-06T21:31:38.497Z,3.50
2022-12-06T21:34:18.926Z,3.51
2022-12-06T21:36:51.540Z,3.52
2022-12-06T21:39:22.699Z,3.54
2022-12-06T21:41:56.462Z,3.52
2022-12-06T21:44:35.990Z,3.52
2022-12-06T21:48:50.348Z,3.54
2022-12-06T21:50:16.075Z,3.52
2022-12-06T21:52:59.569Z,3.54
2022-12-06T21:55:45.493Z,3.58
2022-12-06T21:58:41.194Z,3.52
2022-12-06T22:01:27.226Z,3.51
2022-12-06T22:04:05.032Z,3.51
2022-12-06T22:06:36.999Z,3.51
2022-12-06T22:09:07.137Z,3.48
2022-12-06T22:11:37.081Z,3.47
2022-12-06T22:14:08.799Z,3.51
2022-12-06T22:16:40.719Z,3.57
2022-12-06T22:19:25.419Z,3.59
2022-12-06T22:22:00.491Z,3.58
2022-12-06T22:24:50.791Z,3.57
2022-12-06T22:27:21.974Z,3.56
2022-12-06T22:29:51.073Z,3.52
2022-12-06T22:32:20.701Z,3.50
2022-12-06T22:34:52.480Z,3.51
2022-12-06T22:37:29.734Z,3.53
2022-12-06T22:40:09.189Z,3.52
2022-12-06T22:42:38.517Z,3.53
2022-12-06T22:45:14.530Z,3.50
2022-12-06T22:47:48.537Z,3.44
2022-12-06T22:50:31.544Z,3.39
2022-12-06T22:53:11.532Z,3.36
2022-12-06T22:55:40.664Z,3.32
2022-12-06T22:58:11.530Z,3.31
2022-12-06T23:00:41.454Z,3.31
2022-12-06T23:03:12.907Z,3.28
2022-12-06T23:05:42.205Z,3.18
2022-12-06T23:08:15.997Z,3.15
2022-12-06T23:10:47.431Z,3.14
2022-12-06T23:13:16.499Z,3.14
2022-12-06T23:15:55.612Z,3.16
2022-12-06T23:18:26.028Z,3.18
2022-12-06T23:21:07.251Z,3.18
2022-12-06T23:23:41.337Z,3.16
2022-12-06T23:26:18.789Z,3.14
2022-12-06T23:28:48.039Z,3.13
2022-12-06T23:31:39.170Z,3.15
2022-12-06T23:34:29.587Z,3.11
2022-12-06T23:36:59.649Z,3.07
2022-12-06T23:39:28.809Z,3.05
2022-12-06T23:41:57.869Z,3.06
2022-12-06T23:44:26.848Z,3.06
2022-12-06T23:46:55.872Z,3.07
2022-12-06T23:49:24.815Z,3.07
2022-12-06T23:51:53.873Z,3.08
2022-12-06T23:54:22.811Z,3.09
2022-12-06T23:56:51.748Z,3.10
2022-12-06T23:59:20.694Z,3.10
